sensor_id;sensor_type;location;lat;lon;timestamp;P1;durP1;ratioP1;P2;durP2;ratioP2
57573;SDS011;43409;48.858;21.906;2022-09-09T00:02:08;3.40;;;3.15;;
57573;SDS011;43409;48.858;21.906;2022-09-09T00:04:45;3.22;;;2.92;;
57573;SDS011;43409;48.858;21.906;2022-09-09T00:07:30;4.13;;;3.00;;
57573;SDS011;43409;48.858;21.906;2022-09-09T00:15:00;3.05;;;2.85;;
57573;SDS011;43409;48.858;21.906;2022-09-09T00:20:19;3.10;;;2.80;;
57573;SDS011;43409;48.858;21.906;2022-09-09T00:29:08;2.78;;;2.58;;
57573;SDS011;43409;48.858;21.906;2022-09-09T00:31:32;2.75;;;2.65;;
57573;SDS011;43409;48.858;21.906;2022-09-09T00:33:58;2.92;;;2.72;;
57573;SDS011;43409;48.858;21.906;2022-09-09T00:36:29;3.08;;;2.78;;
57573;SDS011;43409;48.858;21.906;2022-09-09T00:38:59;2.88;;;2.67;;
57573;SDS011;43409;48.858;21.906;2022-09-09T00:41:30;3.13;;;2.88;;
57573;SDS011;43409;48.858;21.906;2022-09-09T00:44:13;2.75;;;2.65;;
57573;SDS011;43409;48.858;21.906;2022-09-09T00:57:45;2.78;;;2.58;;
57573;SDS011;43409;48.858;21.906;2022-09-09T01:00:27;2.90;;;2.80;;
57573;SDS011;43409;48.858;21.906;2022-09-09T01:08:14;3.30;;;2.75;;
57573;SDS011;43409;48.858;21.906;2022-09-09T01:10:50;3.60;;;2.65;;
57573;SDS011;43409;48.858;21.906;2022-09-09T01:13:28;2.45;;;2.35;;
57573;SDS011;43409;48.858;21.906;2022-09-09T01:15:56;2.72;;;2.53;;
57573;SDS011;43409;48.858;21.906;2022-09-09T01:18:26;2.97;;;2.40;;
57573;SDS011;43409;48.858;21.906;2022-09-09T01:26:17;3.40;;;2.70;;
57573;SDS011;43409;48.858;21.906;2022-09-09T01:28:50;3.85;;;2.10;;
57573;SDS011;43409;48.858;21.906;2022-09-09T01:31:54;2.78;;;2.58;;
57573;SDS011;43409;48.858;21.906;2022-09-09T01:34:19;2.88;;;2.67;;
57573;SDS011;43409;48.858;21.906;2022-09-09T01:36:47;2.58;;;2.38;;
57573;SDS011;43409;48.858;21.906;2022-09-09T01:39:18;2.70;;;2.50;;
57573;SDS011;43409;48.858;21.906;2022-09-09T01:41:44;2.83;;;2.63;;
57573;SDS011;43409;48.858;21.906;2022-09-09T01:44:10;2.70;;;2.60;;
57573;SDS011;43409;48.858;21.906;2022-09-09T01:46:36;2.70;;;2.50;;
57573;SDS011;43409;48.858;21.906;2022-09-09T01:49:02;2.47;;;2.30;;
57573;SDS011;43409;48.858;21.906;2022-09-09T01:51:30;2.70;;;2.60;;
57573;SDS011;43409;48.858;21.906;2022-09-09T01:53:56;3.00;;;2.60;;
57573;SDS011;43409;48.858;21.906;2022-09-09T02:04:59;2.55;;;2.35;;
57573;SDS011;43409;48.858;21.906;2022-09-09T02:07:01;2.55;;;2.30;;
57573;SDS011;43409;48.858;21.906;2022-09-09T02:09:26;2.40;;;2.30;;
57573;SDS011;43409;48.858;21.906;2022-09-09T02:12:28;2.28;;;2.13;;
57573;SDS011;43409;48.858;21.906;2022-09-09T02:14:52;2.70;;;2.50;;
57573;SDS011;43409;48.858;21.906;2022-09-09T02:17:26;2.75;;;2.55;;
57573;SDS011;43409;48.858;21.906;2022-09-09T02:20:06;5.65;;;2.70;;
57573;SDS011;43409;48.858;21.906;2022-09-09T02:22:36;3.00;;;2.33;;
57573;SDS011;43409;48.858;21.906;2022-09-09T02:25:06;2.40;;;2.30;;
57573;SDS011;43409;48.858;21.906;2022-09-09T02:27:35;2.80;;;2.60;;
57573;SDS011;43409;48.858;21.906;2022-09-09T02:30:00;2.45;;;2.35;;
57573;SDS011;43409;48.858;21.906;2022-09-09T02:32:28;3.25;;;2.03;;
57573;SDS011;43409;48.858;21.906;2022-09-09T02:35:02;2.90;;;2.42;;
57573;SDS011;43409;48.858;21.906;2022-09-09T02:37:34;2.10;;;2.00;;
57573;SDS011;43409;48.858;21.906;2022-09-09T02:40:06;2.80;;;2.60;;
57573;SDS011;43409;48.858;21.906;2022-09-09T02:42:40;2.65;;;2.35;;
57573;SDS011;43409;48.858;21.906;2022-09-09T02:45:08;2.45;;;2.35;;
57573;SDS011;43409;48.858;21.906;2022-09-09T02:47:37;2.38;;;1.90;;
57573;SDS011;43409;48.858;21.906;2022-09-09T02:57:50;2.20;;;2.10;;
57573;SDS011;43409;48.858;21.906;2022-09-09T03:00:21;2.28;;;2.13;;
57573;SDS011;43409;48.858;21.906;2022-09-09T03:02:49;2.30;;;2.13;;
57573;SDS011;43409;48.858;21.906;2022-09-09T03:05:16;2.50;;;2.30;;
57573;SDS011;43409;48.858;21.906;2022-09-09T03:07:42;3.78;;;2.53;;
57573;SDS011;43409;48.858;21.906;2022-09-09T03:10:07;2.10;;;2.00;;
57573;SDS011;43409;48.858;21.906;2022-09-09T03:12:33;4.43;;;2.70;;
57573;SDS011;43409;48.858;21.906;2022-09-09T03:14:58;2.40;;;2.20;;
57573;SDS011;43409;48.858;21.906;2022-09-09T03:17:24;2.45;;;2.25;;
57573;SDS011;43409;48.858;21.906;2022-09-09T03:19:49;2.20;;;2.10;;
57573;SDS011;43409;48.858;21.906;2022-09-09T03:22:17;2.60;;;2.40;;
57573;SDS011;43409;48.858;21.906;2022-09-09T03:24:42;2.50;;;2.40;;
57573;SDS011;43409;48.858;21.906;2022-09-09T03:27:08;2.50;;;2.30;;
57573;SDS011;43409;48.858;21.906;2022-09-09T03:29:33;10.35;;;2.38;;
57573;SDS011;43409;48.858;21.906;2022-09-09T03:31:59;4.13;;;2.55;;
57573;SDS011;43409;48.858;21.906;2022-09-09T03:34:24;3.35;;;1.88;;
57573;SDS011;43409;48.858;21.906;2022-09-09T03:36:49;2.10;;;2.00;;
57573;SDS011;43409;48.858;21.906;2022-09-09T03:39:15;2.20;;;2.10;;
57573;SDS011;43409;48.858;21.906;2022-09-09T03:41:41;2.10;;;2.00;;
57573;SDS011;43409;48.858;21.906;2022-09-09T03:44:06;2.22;;;2.13;;
57573;SDS011;43409;48.858;21.906;2022-09-09T03:46:31;2.13;;;2.03;;
57573;SDS011;43409;48.858;21.906;2022-09-09T03:48:57;2.10;;;2.00;;
57573;SDS011;43409;48.858;21.906;2022-09-09T03:51:23;5.25;;;2.17;;
57573;SDS011;43409;48.858;21.906;2022-09-09T03:53:48;2.00;;;1.90;;
57573;SDS011;43409;48.858;21.906;2022-09-09T03:56:14;2.47;;;1.85;;
57573;SDS011;43409;48.858;21.906;2022-09-09T03:58:39;2.35;;;2.25;;
57573;SDS011;43409;48.858;21.906;2022-09-09T04:01:06;1.90;;;1.80;;
57573;SDS011;43409;48.858;21.906;2022-09-09T04:03:39;2.30;;;2.10;;
57573;SDS011;43409;48.858;21.906;2022-09-09T04:06:05;2.25;;;1.80;;
57573;SDS011;43409;48.858;21.906;2022-09-09T04:08:34;2.70;;;1.80;;
57573;SDS011;43409;48.858;21.906;2022-09-09T04:11:01;2.10;;;1.90;;
57573;SDS011;43409;48.858;21.906;2022-09-09T04:13:31;2.17;;;1.98;;
57573;SDS011;43409;48.858;21.906;2022-09-09T04:15:58;2.20;;;2.00;;
57573;SDS011;43409;48.858;21.906;2022-09-09T04:18:25;2.08;;;1.98;;
57573;SDS011;43409;48.858;21.906;2022-09-09T04:20:52;2.25;;;2.05;;
57573;SDS011;43409;48.858;21.906;2022-09-09T04:23:18;1.92;;;1.83;;
57573;SDS011;43409;48.858;21.906;2022-09-09T04:25:48;4.20;;;2.08;;
57573;SDS011;43409;48.858;21.906;2022-09-09T04:28:15;2.10;;;2.00;;
57573;SDS011;43409;48.858;21.906;2022-09-09T04:30:43;2.20;;;2.00;;
57573;SDS011;43409;48.858;21.906;2022-09-09T04:33:08;2.17;;;2.08;;
57573;SDS011;43409;48.858;21.906;2022-09-09T04:35:34;2.30;;;2.20;;
57573;SDS011;43409;48.858;21.906;2022-09-09T04:38:00;2.35;;;2.15;;
57573;SDS011;43409;48.858;21.906;2022-09-09T04:40:27;2.30;;;2.20;;
57573;SDS011;43409;48.858;21.906;2022-09-09T04:42:54;3.65;;;2.20;;
57573;SDS011;43409;48.858;21.906;2022-09-09T04:45:20;2.42;;;2.22;;
57573;SDS011;43409;48.858;21.906;2022-09-09T04:47:45;2.33;;;2.13;;
57573;SDS011;43409;48.858;21.906;2022-09-09T04:50:11;2.25;;;2.15;;
57573;SDS011;43409;48.858;21.906;2022-09-09T04:52:37;2.65;;;2.50;;
57573;SDS011;43409;48.858;21.906;2022-09-09T04:55:02;2.75;;;2.13;;
57573;SDS011;43409;48.858;21.906;2022-09-09T04:57:28;2.60;;;2.45;;
57573;SDS011;43409;48.858;21.906;2022-09-09T04:59:53;2.22;;;2.13;;
57573;SDS011;43409;48.858;21.906;2022-09-09T05:02:19;2.25;;;2.00;;
57573;SDS011;43409;48.858;21.906;2022-09-09T05:04:44;3.08;;;2.20;;
57573;SDS011;43409;48.858;21.906;2022-09-09T05:07:10;2.25;;;2.10;;
57573;SDS011;43409;48.858;21.906;2022-09-09T05:09:35;2.50;;;2.35;;
57573;SDS011;43409;48.858;21.906;2022-09-09T05:12:01;3.40;;;2.30;;
57573;SDS011;43409;48.858;21.906;2022-09-09T05:14:27;12.10;;;2.50;;
57573;SDS011;43409;48.858;21.906;2022-09-09T05:16:53;23.90;;;3.05;;
57573;SDS011;43409;48.858;21.906;2022-09-09T05:19:18;3.92;;;2.40;;
57573;SDS011;43409;48.858;21.906;2022-09-09T05:21:44;10.38;;;2.95;;
57573;SDS011;43409;48.858;21.906;2022-09-09T05:24:10;12.45;;;3.40;;
57573;SDS011;43409;48.858;21.906;2022-09-09T05:26:36;15.60;;;3.38;;
57573;SDS011;43409;48.858;21.906;2022-09-09T05:29:01;6.63;;;3.05;;
57573;SDS011;43409;48.858;21.906;2022-09-09T05:31:29;5.85;;;3.45;;
57573;SDS011;43409;48.858;21.906;2022-09-09T05:33:55;7.97;;;4.00;;
57573;SDS011;43409;48.858;21.906;2022-09-09T05:36:21;4.68;;;3.70;;
57573;SDS011;43409;48.858;21.906;2022-09-09T05:38:47;6.38;;;3.72;;
57573;SDS011;43409;48.858;21.906;2022-09-09T05:41:15;4.30;;;3.88;;
57573;SDS011;43409;48.858;21.906;2022-09-09T05:43:42;4.93;;;3.70;;
57573;SDS011;43409;48.858;21.906;2022-09-09T05:46:14;4.50;;;4.18;;
57573;SDS011;43409;48.858;21.906;2022-09-09T05:48:44;12.15;;;4.20;;
57573;SDS011;43409;48.858;21.906;2022-09-09T05:51:12;8.80;;;4.50;;
57573;SDS011;43409;48.858;21.906;2022-09-09T05:53:41;16.00;;;4.70;;
57573;SDS011;43409;48.858;21.906;2022-09-09T05:56:08;16.33;;;4.60;;
57573;SDS011;43409;48.858;21.906;2022-09-09T05:58:35;6.43;;;4.50;;
57573;SDS011;43409;48.858;21.906;2022-09-09T06:03:28;7.15;;;4.40;;
57573;SDS011;43409;48.858;21.906;2022-09-09T06:06:00;8.05;;;4.40;;
57573;SDS011;43409;48.858;21.906;2022-09-09T06:08:27;4.65;;;4.22;;
57573;SDS011;43409;48.858;21.906;2022-09-09T06:10:52;7.05;;;4.53;;
57573;SDS011;43409;48.858;21.906;2022-09-09T06:13:18;12.75;;;5.03;;
57573;SDS011;43409;48.858;21.906;2022-09-09T06:15:50;19.65;;;4.38;;
57573;SDS011;43409;48.858;21.906;2022-09-09T06:18:17;10.98;;;4.50;;
57573;SDS011;43409;48.858;21.906;2022-09-09T06:20:52;6.00;;;4.05;;
57573;SDS011;43409;48.858;21.906;2022-09-09T06:23:21;17.08;;;5.80;;
57573;SDS011;43409;48.858;21.906;2022-09-09T06:25:47;20.00;;;5.47;;
57573;SDS011;43409;48.858;21.906;2022-09-09T06:28:14;7.53;;;4.88;;
57573;SDS011;43409;48.858;21.906;2022-09-09T06:30:40;5.78;;;4.97;;
57573;SDS011;43409;48.858;21.906;2022-09-09T06:33:06;14.40;;;5.22;;
57573;SDS011;43409;48.858;21.906;2022-09-09T06:35:31;12.88;;;4.18;;
57573;SDS011;43409;48.858;21.906;2022-09-09T06:37:57;15.27;;;4.55;;
57573;SDS011;43409;48.858;21.906;2022-09-09T06:40:23;12.48;;;4.07;;
57573;SDS011;43409;48.858;21.906;2022-09-09T06:42:49;5.75;;;3.17;;
57573;SDS011;43409;48.858;21.906;2022-09-09T06:45:14;5.15;;;3.45;;
57573;SDS011;43409;48.858;21.906;2022-09-09T06:47:40;4.90;;;3.10;;
57573;SDS011;43409;48.858;21.906;2022-09-09T06:50:06;3.70;;;3.30;;
57573;SDS011;43409;48.858;21.906;2022-09-09T06:52:32;4.18;;;3.10;;
57573;SDS011;43409;48.858;21.906;2022-09-09T06:54:58;5.35;;;3.08;;
57573;SDS011;43409;48.858;21.906;2022-09-09T06:57:24;3.38;;;2.83;;
57573;SDS011;43409;48.858;21.906;2022-09-09T06:59:49;5.72;;;2.72;;
57573;SDS011;43409;48.858;21.906;2022-09-09T07:02:15;4.35;;;2.95;;
57573;SDS011;43409;48.858;21.906;2022-09-09T07:04:41;5.82;;;2.70;;
57573;SDS011;43409;48.858;21.906;2022-09-09T07:07:06;5.75;;;2.60;;
57573;SDS011;43409;48.858;21.906;2022-09-09T07:09:33;4.72;;;3.03;;
57573;SDS011;43409;48.858;21.906;2022-09-09T07:11:58;4.55;;;2.85;;
57573;SDS011;43409;48.858;21.906;2022-09-09T07:14:24;2.60;;;2.40;;
57573;SDS011;43409;48.858;21.906;2022-09-09T07:16:50;2.88;;;2.53;;
57573;SDS011;43409;48.858;21.906;2022-09-09T07:19:15;7.45;;;2.45;;
57573;SDS011;43409;48.858;21.906;2022-09-09T07:21:42;3.42;;;2.55;;
57573;SDS011;43409;48.858;21.906;2022-09-09T07:24:08;5.70;;;2.58;;
57573;SDS011;43409;48.858;21.906;2022-09-09T07:26:35;3.42;;;2.50;;
57573;SDS011;43409;48.858;21.906;2022-09-09T07:29:02;1.95;;;1.85;;
57573;SDS011;43409;48.858;21.906;2022-09-09T07:31:30;2.28;;;2.08;;
57573;SDS011;43409;48.858;21.906;2022-09-09T07:33:57;2.00;;;1.90;;
57573;SDS011;43409;48.858;21.906;2022-09-09T07:36:32;7.63;;;2.20;;
57573;SDS011;43409;48.858;21.906;2022-09-09T07:39:05;3.65;;;2.20;;
57573;SDS011;43409;48.858;21.906;2022-09-09T07:43:59;2.35;;;1.85;;
57573;SDS011;43409;48.858;21.906;2022-09-09T07:46:28;2.00;;;1.90;;
57573;SDS011;43409;48.858;21.906;2022-09-09T07:48:54;36.35;;;2.50;;
57573;SDS011;43409;48.858;21.906;2022-09-09T07:51:25;53.58;;;3.35;;
57573;SDS011;43409;48.858;21.906;2022-09-09T07:53:54;4.53;;;2.07;;
57573;SDS011;43409;48.858;21.906;2022-09-09T07:56:23;8.38;;;2.25;;
57573;SDS011;43409;48.858;21.906;2022-09-09T07:58:49;4.95;;;1.75;;
57573;SDS011;43409;48.858;21.906;2022-09-09T08:01:20;8.13;;;1.80;;
57573;SDS011;43409;48.858;21.906;2022-09-09T08:03:53;5.15;;;1.88;;
57573;SDS011;43409;48.858;21.906;2022-09-09T08:06:20;7.30;;;1.73;;
57573;SDS011;43409;48.858;21.906;2022-09-09T08:08:49;1.25;;;1.23;;
57573;SDS011;43409;48.858;21.906;2022-09-09T08:11:15;2.88;;;1.33;;
57573;SDS011;43409;48.858;21.906;2022-09-09T08:13:41;5.20;;;1.20;;
57573;SDS011;43409;48.858;21.906;2022-09-09T08:18:38;3.75;;;1.35;;
57573;SDS011;43409;48.858;21.906;2022-09-09T08:21:12;4.78;;;1.25;;
57573;SDS011;43409;48.858;21.906;2022-09-09T08:23:42;5.45;;;1.50;;
57573;SDS011;43409;48.858;21.906;2022-09-09T08:26:10;1.83;;;1.40;;
57573;SDS011;43409;48.858;21.906;2022-09-09T08:28:36;5.40;;;1.30;;
57573;SDS011;43409;48.858;21.906;2022-09-09T08:31:35;3.60;;;1.40;;
57573;SDS011;43409;48.858;21.906;2022-09-09T08:33:58;1.23;;;1.13;;
57573;SDS011;43409;48.858;21.906;2022-09-09T08:36:25;1.50;;;1.40;;
57573;SDS011;43409;48.858;21.906;2022-09-09T08:38:53;2.90;;;1.38;;
57573;SDS011;43409;48.858;21.906;2022-09-09T08:44:11;4.22;;;1.40;;
57573;SDS011;43409;48.858;21.906;2022-09-09T08:46:42;1.42;;;1.33;;
57573;SDS011;43409;48.858;21.906;2022-09-09T08:52:19;6.32;;;1.38;;
57573;SDS011;43409;48.858;21.906;2022-09-09T08:54:46;2.33;;;1.33;;
57573;SDS011;43409;48.858;21.906;2022-09-09T08:57:18;5.90;;;1.90;;
57573;SDS011;43409;48.858;21.906;2022-09-09T08:59:46;7.38;;;1.85;;
57573;SDS011;43409;48.858;21.906;2022-09-09T09:02:26;6.30;;;1.30;;
57573;SDS011;43409;48.858;21.906;2022-09-09T09:13:14;5.88;;;1.40;;
57573;SDS011;43409;48.858;21.906;2022-09-09T09:15:43;3.22;;;1.52;;
57573;SDS011;43409;48.858;21.906;2022-09-09T09:18:14;1.60;;;1.48;;
57573;SDS011;43409;48.858;21.906;2022-09-09T09:23:16;5.35;;;1.85;;
57573;SDS011;43409;48.858;21.906;2022-09-09T09:25:47;3.70;;;1.70;;
57573;SDS011;43409;48.858;21.906;2022-09-09T09:28:25;9.80;;;1.70;;
57573;SDS011;43409;48.858;21.906;2022-09-09T09:30:55;2.10;;;1.40;;
57573;SDS011;43409;48.858;21.906;2022-09-09T09:33:27;1.92;;;1.73;;
57573;SDS011;43409;48.858;21.906;2022-09-09T09:36:06;3.45;;;1.83;;
57573;SDS011;43409;48.858;21.906;2022-09-09T09:38:33;1.73;;;1.38;;
57573;SDS011;43409;48.858;21.906;2022-09-09T09:41:00;5.47;;;1.52;;
57573;SDS011;43409;48.858;21.906;2022-09-09T09:45:58;9.20;;;2.13;;
57573;SDS011;43409;48.858;21.906;2022-09-09T09:48:24;2.00;;;1.80;;
57573;SDS011;43409;48.858;21.906;2022-09-09T09:50:52;3.17;;;1.90;;
57573;SDS011;43409;48.858;21.906;2022-09-09T09:53:20;7.18;;;1.48;;
57573;SDS011;43409;48.858;21.906;2022-09-09T09:56:31;1.60;;;1.50;;
57573;SDS011;43409;48.858;21.906;2022-09-09T10:03:54;6.43;;;1.30;;
57573;SDS011;43409;48.858;21.906;2022-09-09T10:06:32;2.55;;;1.25;;
57573;SDS011;43409;48.858;21.906;2022-09-09T10:08:58;4.55;;;1.25;;
57573;SDS011;43409;48.858;21.906;2022-09-09T10:14:54;1.70;;;1.30;;
57573;SDS011;43409;48.858;21.906;2022-09-09T10:22:45;6.18;;;1.30;;
57573;SDS011;43409;48.858;21.906;2022-09-09T10:33:16;2.92;;;1.25;;
57573;SDS011;43409;48.858;21.906;2022-09-09T10:38:42;2.92;;;1.42;;
57573;SDS011;43409;48.858;21.906;2022-09-09T10:55:26;6.03;;;1.27;;
57573;SDS011;43409;48.858;21.906;2022-09-09T10:57:58;1.42;;;1.33;;
57573;SDS011;43409;48.858;21.906;2022-09-09T11:00:36;2.67;;;1.10;;
57573;SDS011;43409;48.858;21.906;2022-09-09T11:03:18;1.73;;;1.30;;
57573;SDS011;43409;48.858;21.906;2022-09-09T11:06:34;3.08;;;1.00;;
57573;SDS011;43409;48.858;21.906;2022-09-09T11:08:44;1.40;;;1.20;;
57573;SDS011;43409;48.858;21.906;2022-09-09T11:11:17;1.70;;;1.30;;
57573;SDS011;43409;48.858;21.906;2022-09-09T11:19:00;1.38;;;1.30;;
57573;SDS011;43409;48.858;21.906;2022-09-09T11:21:34;3.53;;;1.17;;
57573;SDS011;43409;48.858;21.906;2022-09-09T11:24:11;1.30;;;1.20;;
57573;SDS011;43409;48.858;21.906;2022-09-09T11:26:42;2.72;;;1.00;;
57573;SDS011;43409;48.858;21.906;2022-09-09T11:40:21;1.40;;;1.13;;
57573;SDS011;43409;48.858;21.906;2022-09-09T11:42:48;4.38;;;1.20;;
57573;SDS011;43409;48.858;21.906;2022-09-09T11:45:26;1.20;;;1.10;;
57573;SDS011;43409;48.858;21.906;2022-09-09T11:47:57;1.30;;;1.20;;
57573;SDS011;43409;48.858;21.906;2022-09-09T11:52:50;10.30;;;1.35;;
57573;SDS011;43409;48.858;21.906;2022-09-09T11:55:31;1.70;;;1.15;;
57573;SDS011;43409;48.858;21.906;2022-09-09T12:03:30;3.55;;;1.50;;
57573;SDS011;43409;48.858;21.906;2022-09-09T12:06:08;2.50;;;1.42;;
57573;SDS011;43409;48.858;21.906;2022-09-09T12:08:36;5.03;;;1.30;;
57573;SDS011;43409;48.858;21.906;2022-09-09T12:11:05;6.10;;;1.40;;
57573;SDS011;43409;48.858;21.906;2022-09-09T12:13:31;4.20;;;1.27;;
57573;SDS011;43409;48.858;21.906;2022-09-09T12:15:58;4.40;;;1.70;;
57573;SDS011;43409;48.858;21.906;2022-09-09T12:18:39;1.90;;;1.58;;
57573;SDS011;43409;48.858;21.906;2022-09-09T12:26:29;11.95;;;1.58;;
57573;SDS011;43409;48.858;21.906;2022-09-09T12:31:33;4.97;;;1.38;;
57573;SDS011;43409;48.858;21.906;2022-09-09T12:40:22;13.40;;;1.50;;
57573;SDS011;43409;48.858;21.906;2022-09-09T12:42:48;16.27;;;1.80;;
57573;SDS011;43409;48.858;21.906;2022-09-09T12:50:18;4.95;;;1.67;;
57573;SDS011;43409;48.858;21.906;2022-09-09T12:52:55;14.93;;;1.42;;
57573;SDS011;43409;48.858;21.906;2022-09-09T12:55:25;8.13;;;1.65;;
57573;SDS011;43409;48.858;21.906;2022-09-09T12:57:55;3.90;;;1.98;;
57573;SDS011;43409;48.858;21.906;2022-09-09T13:00:23;9.63;;;1.90;;
57573;SDS011;43409;48.858;21.906;2022-09-09T13:02:54;13.13;;;2.22;;
57573;SDS011;43409;48.858;21.906;2022-09-09T13:05:22;12.35;;;6.80;;
57573;SDS011;43409;48.858;21.906;2022-09-09T13:07:49;40.25;;;5.13;;
57573;SDS011;43409;48.858;21.906;2022-09-09T13:10:20;9.68;;;4.50;;
57573;SDS011;43409;48.858;21.906;2022-09-09T13:12:49;10.48;;;4.45;;
57573;SDS011;43409;48.858;21.906;2022-09-09T13:15:24;9.45;;;3.85;;
57573;SDS011;43409;48.858;21.906;2022-09-09T13:17:54;14.85;;;4.28;;
57573;SDS011;43409;48.858;21.906;2022-09-09T13:20:22;6.50;;;3.38;;
57573;SDS011;43409;48.858;21.906;2022-09-09T13:22:49;8.93;;;3.38;;
57573;SDS011;43409;48.858;21.906;2022-09-09T13:25:22;3.97;;;3.60;;
57573;SDS011;43409;48.858;21.906;2022-09-09T13:28:03;6.13;;;3.15;;
57573;SDS011;43409;48.858;21.906;2022-09-09T13:30:36;9.68;;;3.30;;
57573;SDS011;43409;48.858;21.906;2022-09-09T13:35:34;5.60;;;3.33;;
57573;SDS011;43409;48.858;21.906;2022-09-09T13:38:07;10.85;;;2.92;;
57573;SDS011;43409;48.858;21.906;2022-09-09T13:40:34;10.95;;;3.20;;
57573;SDS011;43409;48.858;21.906;2022-09-09T13:43:01;6.05;;;2.80;;
57573;SDS011;43409;48.858;21.906;2022-09-09T13:45:28;6.05;;;2.63;;
57573;SDS011;43409;48.858;21.906;2022-09-09T13:47:54;4.13;;;2.90;;
57573;SDS011;43409;48.858;21.906;2022-09-09T13:50:30;2.85;;;2.50;;
57573;SDS011;43409;48.858;21.906;2022-09-09T13:52:56;7.35;;;2.83;;
57573;SDS011;43409;48.858;21.906;2022-09-09T13:55:27;2.78;;;2.58;;
57573;SDS011;43409;48.858;21.906;2022-09-09T13:57:57;8.50;;;2.72;;
57573;SDS011;43409;48.858;21.906;2022-09-09T14:00:25;2.63;;;2.20;;
57573;SDS011;43409;48.858;21.906;2022-09-09T14:02:53;4.38;;;2.30;;
57573;SDS011;43409;48.858;21.906;2022-09-09T14:05:20;2.53;;;2.17;;
57573;SDS011;43409;48.858;21.906;2022-09-09T14:07:47;5.35;;;2.40;;
57573;SDS011;43409;48.858;21.906;2022-09-09T14:10:14;2.28;;;2.00;;
57573;SDS011;43409;48.858;21.906;2022-09-09T14:12:39;7.72;;;2.03;;
57573;SDS011;43409;48.858;21.906;2022-09-09T14:15:05;2.75;;;2.10;;
57573;SDS011;43409;48.858;21.906;2022-09-09T14:17:32;2.17;;;1.98;;
57573;SDS011;43409;48.858;21.906;2022-09-09T14:19:58;3.00;;;2.38;;
57573;SDS011;43409;48.858;21.906;2022-09-09T14:22:24;2.10;;;1.75;;
57573;SDS011;43409;48.858;21.906;2022-09-09T14:24:50;2.42;;;1.85;;
57573;SDS011;43409;48.858;21.906;2022-09-09T14:27:16;2.75;;;2.10;;
57573;SDS011;43409;48.858;21.906;2022-09-09T14:29:43;7.40;;;1.73;;
57573;SDS011;43409;48.858;21.906;2022-09-09T14:32:09;2.55;;;1.98;;
57573;SDS011;43409;48.858;21.906;2022-09-09T14:34:36;1.67;;;1.58;;
57573;SDS011;43409;48.858;21.906;2022-09-09T14:37:01;2.90;;;1.98;;
57573;SDS011;43409;48.858;21.906;2022-09-09T14:39:27;2.05;;;1.45;;
57573;SDS011;43409;48.858;21.906;2022-09-09T14:41:52;2.40;;;1.70;;
57573;SDS011;43409;48.858;21.906;2022-09-09T14:44:17;3.17;;;2.08;;
57573;SDS011;43409;48.858;21.906;2022-09-09T14:46:43;1.60;;;1.50;;
57573;SDS011;43409;48.858;21.906;2022-09-09T14:49:09;1.60;;;1.50;;
57573;SDS011;43409;48.858;21.906;2022-09-09T14:51:38;1.58;;;1.48;;
57573;SDS011;43409;48.858;21.906;2022-09-09T14:54:03;3.53;;;1.60;;
57573;SDS011;43409;48.858;21.906;2022-09-09T14:56:30;2.15;;;1.50;;
57573;SDS011;43409;48.858;21.906;2022-09-09T14:58:58;2.10;;;1.45;;
57573;SDS011;43409;48.858;21.906;2022-09-09T15:01:26;1.63;;;1.35;;
57573;SDS011;43409;48.858;21.906;2022-09-09T15:03:59;5.97;;;1.60;;
57573;SDS011;43409;48.858;21.906;2022-09-09T15:06:26;1.52;;;1.20;;
57573;SDS011;43409;48.858;21.906;2022-09-09T15:08:54;1.33;;;1.23;;
57573;SDS011;43409;48.858;21.906;2022-09-09T15:11:22;2.67;;;1.52;;
57573;SDS011;43409;48.858;21.906;2022-09-09T15:13:50;1.52;;;1.42;;
57573;SDS011;43409;48.858;21.906;2022-09-09T15:16:20;4.47;;;1.50;;
57573;SDS011;43409;48.858;21.906;2022-09-09T15:18:49;1.40;;;1.30;;
57573;SDS011;43409;48.858;21.906;2022-09-09T15:21:17;1.40;;;1.30;;
57573;SDS011;43409;48.858;21.906;2022-09-09T15:23:44;1.30;;;1.20;;
57573;SDS011;43409;48.858;21.906;2022-09-09T15:26:10;2.05;;;1.40;;
57573;SDS011;43409;48.858;21.906;2022-09-09T15:28:36;1.42;;;1.27;;
57573;SDS011;43409;48.858;21.906;2022-09-09T15:31:10;4.20;;;1.30;;
57573;SDS011;43409;48.858;21.906;2022-09-09T15:33:39;7.05;;;1.40;;
57573;SDS011;43409;48.858;21.906;2022-09-09T15:36:12;1.33;;;1.10;;
57573;SDS011;43409;48.858;21.906;2022-09-09T15:38:51;8.90;;;1.50;;
57573;SDS011;43409;48.858;21.906;2022-09-09T15:41:18;1.30;;;1.20;;
57573;SDS011;43409;48.858;21.906;2022-09-09T15:43:49;1.60;;;1.50;;
57573;SDS011;43409;48.858;21.906;2022-09-09T15:46:23;1.33;;;1.00;;
57573;SDS011;43409;48.858;21.906;2022-09-09T15:48:53;1.20;;;1.00;;
57573;SDS011;43409;48.858;21.906;2022-09-09T15:51:20;1.20;;;1.10;;
57573;SDS011;43409;48.858;21.906;2022-09-09T15:53:46;1.42;;;1.02;;
57573;SDS011;43409;48.858;21.906;2022-09-09T15:56:12;0.90;;;0.90;;
57573;SDS011;43409;48.858;21.906;2022-09-09T15:58:38;0.90;;;0.90;;
57573;SDS011;43409;48.858;21.906;2022-09-09T16:01:03;1.10;;;1.00;;
57573;SDS011;43409;48.858;21.906;2022-09-09T16:03:36;1.52;;;1.00;;
57573;SDS011;43409;48.858;21.906;2022-09-09T16:06:03;1.00;;;1.00;;
57573;SDS011;43409;48.858;21.906;2022-09-09T16:08:34;1.20;;;1.10;;
57573;SDS011;43409;48.858;21.906;2022-09-09T16:11:07;3.33;;;1.13;;
57573;SDS011;43409;48.858;21.906;2022-09-09T16:13:37;1.25;;;1.10;;
57573;SDS011;43409;48.858;21.906;2022-09-09T16:16:04;1.23;;;1.02;;
57573;SDS011;43409;48.858;21.906;2022-09-09T16:18:38;1.00;;;1.00;;
57573;SDS011;43409;48.858;21.906;2022-09-09T16:21:13;1.05;;;0.95;;
57573;SDS011;43409;48.858;21.906;2022-09-09T16:23:42;0.95;;;0.90;;
57573;SDS011;43409;48.858;21.906;2022-09-09T16:26:12;1.17;;;1.08;;
57573;SDS011;43409;48.858;21.906;2022-09-09T16:28:39;1.30;;;1.20;;
57573;SDS011;43409;48.858;21.906;2022-09-09T16:31:05;1.10;;;0.98;;
57573;SDS011;43409;48.858;21.906;2022-09-09T16:33:31;1.00;;;0.90;;
57573;SDS011;43409;48.858;21.906;2022-09-09T16:35:56;0.90;;;0.90;;
57573;SDS011;43409;48.858;21.906;2022-09-09T16:38:22;1.38;;;1.00;;
57573;SDS011;43409;48.858;21.906;2022-09-09T16:40:47;1.77;;;0.95;;
57573;SDS011;43409;48.858;21.906;2022-09-09T16:43:15;1.15;;;0.98;;
57573;SDS011;43409;48.858;21.906;2022-09-09T16:45:44;1.25;;;1.00;;
57573;SDS011;43409;48.858;21.906;2022-09-09T16:48:10;1.52;;;1.00;;
57573;SDS011;43409;48.858;21.906;2022-09-09T16:50:37;1.83;;;1.00;;
57573;SDS011;43409;48.858;21.906;2022-09-09T16:53:03;0.95;;;0.80;;
57573;SDS011;43409;48.858;21.906;2022-09-09T16:55:31;0.90;;;0.90;;
57573;SDS011;43409;48.858;21.906;2022-09-09T16:57:57;1.27;;;0.80;;
57573;SDS011;43409;48.858;21.906;2022-09-09T17:00:22;1.10;;;1.00;;
57573;SDS011;43409;48.858;21.906;2022-09-09T17:02:48;0.80;;;0.80;;
57573;SDS011;43409;48.858;21.906;2022-09-09T17:05:13;0.90;;;0.90;;
57573;SDS011;43409;48.858;21.906;2022-09-09T17:07:39;1.70;;;1.10;;
57573;SDS011;43409;48.858;21.906;2022-09-09T17:10:06;0.88;;;0.88;;
57573;SDS011;43409;48.858;21.906;2022-09-09T17:12:32;1.02;;;0.98;;
57573;SDS011;43409;48.858;21.906;2022-09-09T17:14:58;0.90;;;0.90;;
57573;SDS011;43409;48.858;21.906;2022-09-09T17:17:24;1.20;;;1.10;;
57573;SDS011;43409;48.858;21.906;2022-09-09T17:19:51;0.93;;;0.90;;
57573;SDS011;43409;48.858;21.906;2022-09-09T17:22:17;1.23;;;1.10;;
57573;SDS011;43409;48.858;21.906;2022-09-09T17:24:43;2.33;;;0.98;;
57573;SDS011;43409;48.858;21.906;2022-09-09T17:27:09;0.95;;;0.90;;